Time;durP1;ratioP1;P1;durP2;ratioP2;P2;SDS_P1;SDS_P2;PMS_P1;PMS_P2;Temp;Humidity;BMP_temperature;BMP_pressure;BME280_temperature;BME280_humidity;BME280_pressure;Samples;Min_cycle;Max_cycle;Signal;HPM_P1;HPM_P2
2022/11/20 00:00:57;;;;;;;1.00;0.30;;;25.30;48.50;;;;;;5074072;28;20449;-87
2022/11/20 00:03:24;;;;;;;1.40;0.40;;;25.20;48.50;;;;;;5073001;28;20374;-85
2022/11/20 00:05:51;;;;;;;1.75;0.35;;;25.20;47.80;;;;;;5073262;28;20381;-85
2022/11/20 00:08:18;;;;;;;1.10;0.40;;;25.20;47.50;;;;;;5073175;28;20369;-83
2022/11/20 00:10:45;;;;;;;1.15;0.40;;;25.10;48.00;;;;;;5070544;28;20384;-81
2022/11/20 00:13:12;;;;;;;0.80;0.40;;;25.30;48.90;;;;;;5073356;28;20479;-84
2022/11/20 00:15:39;;;;;;;4.30;0.50;;;25.20;48.20;;;;;;5072574;28;20384;-83
2022/11/20 00:18:06;;;;;;;1.13;0.47;;;25.10;47.70;;;;;;5072758;28;20731;-82
2022/11/20 00:20:33;;;;;;;1.13;0.45;;;25.30;47.40;;;;;;5072205;28;20861;-86
2022/11/20 00:23:00;;;;;;;0.95;0.40;;;25.20;48.30;;;;;;5059321;28;20723;-86
2022/11/20 00:25:28;;;;;;;0.98;0.40;;;25.10;48.10;;;;;;5073104;28;20376;-84
2022/11/20 00:27:55;;;;;;;1.77;0.30;;;25.10;48.50;;;;;;5072436;28;20382;-88
2022/11/20 00:30:22;;;;;;;0.98;0.35;;;25.20;47.50;;;;;;5035170;28;20782;-83
2022/11/20 00:32:49;;;;;;;2.72;0.50;;;25.00;48.00;;;;;;5067755;28;20913;-84
2022/11/20 00:35:16;;;;;;;1.23;0.30;;;24.90;47.90;;;;;;5061664;28;20406;-85
2022/11/20 00:37:43;;;;;;;2.07;0.40;;;25.00;47.60;;;;;;5073007;28;20753;-88
2022/11/20 00:40:11;;;;;;;1.33;0.40;;;24.90;47.10;;;;;;5055205;28;20394;-86
2022/11/20 00:42:38;;;;;;;1.33;0.32;;;24.80;48.10;;;;;;5059486;28;20391;-86
2022/11/20 00:45:05;;;;;;;2.55;0.52;;;24.80;47.80;;;;;;5066262;28;20394;-85
2022/11/20 00:47:32;;;;;;;2.20;0.55;;;25.00;46.10;;;;;;5065415;28;20469;-84
2022/11/20 00:49:59;;;;;;;2.50;0.40;;;25.10;47.30;;;;;;5064774;28;20390;-86
2022/11/20 00:52:26;;;;;;;1.27;0.35;;;25.20;47.20;;;;;;5054118;28;20388;-88
2022/11/20 00:54:53;;;;;;;1.05;0.50;;;25.30;47.50;;;;;;5057245;28;20388;-82
2022/11/20 00:57:20;;;;;;;1.30;0.40;;;25.60;46.50;;;;;;5060758;28;20394;-83
2022/11/20 00:59:47;;;;;;;1.37;0.47;;;25.50;46.20;;;;;;5056525;28;20392;-82
2022/11/20 01:02:16;;;;;;;1.10;0.40;;;25.50;47.00;;;;;;5062937;28;20380;-84
2022/11/20 01:04:43;;;;;;;0.85;0.40;;;25.50;46.40;;;;;;5051175;28;20380;-82
2022/11/20 01:07:10;;;;;;;0.93;0.40;;;25.60;46.90;;;;;;5051298;28;20529;-84
2022/11/20 01:09:37;;;;;;;1.00;0.50;;;25.60;47.20;;;;;;5051304;28;20387;-85
2022/11/20 01:12:04;;;;;;;0.70;0.38;;;25.50;47.60;;;;;;5051352;28;20406;-83
2022/11/20 01:14:31;;;;;;;1.08;0.50;;;25.70;45.60;;;;;;5051752;28;20404;-84
2022/11/20 01:16:58;;;;;;;1.60;0.40;;;25.80;44.40;;;;;;5048307;28;20371;-81
2022/11/20 01:19:25;;;;;;;2.00;0.30;;;25.90;43.90;;;;;;5051795;28;20387;-83
2022/11/20 01:21:54;;;;;;;1.20;0.40;;;25.70;43.90;;;;;;5053136;28;20386;-82
2022/11/20 01:24:22;;;;;;;2.00;0.40;;;25.80;45.20;;;;;;5068692;28;20882;-84
2022/11/20 01:26:51;;;;;;;2.67;1.67;;;26.00;44.80;;;;;;5062399;28;20371;-84
2022/11/20 01:29:22;;;;;;;0.85;0.30;;;25.90;44.90;;;;;;5066967;28;20887;-84
2022/11/20 01:31:49;;;;;;;1.42;0.40;;;26.00;44.20;;;;;;5063552;28;20384;-83
2022/11/20 01:34:21;;;;;;;1.43;0.57;;;26.10;45.30;;;;;;5063218;28;21333;-88
2022/11/20 01:36:49;;;;;;;2.38;0.50;;;26.50;45.10;;;;;;5051069;28;20390;-85
2022/11/20 01:39:19;;;;;;;0.77;0.50;;;26.50;44.00;;;;;;5052684;28;20395;-84
2022/11/20 01:45:24;;;;;;;1.70;0.30;;;27.00;44.00;;;;;;5057898;28;20871;-86
2022/11/20 01:47:51;;;;;;;1.20;0.40;;;27.00;44.70;;;;;;4966954;28;20398;-86
2022/11/20 01:50:33;;;;;;;1.10;0.40;;;26.50;43.30;;;;;;4968263;28;20398;-84
2022/11/20 01:53:06;;;;;;;0.77;0.30;;;26.50;44.50;;;;;;4952497;28;20495;-85
2022/11/20 01:55:37;;;;;;;1.00;0.30;;;26.90;44.30;;;;;;4955579;28;20400;-84
2022/11/20 01:58:05;;;;;;;1.25;0.40;;;27.10;44.80;;;;;;4950883;28;20424;-87
2022/11/20 02:00:32;;;;;;;2.33;0.40;;;27.50;44.90;;;;;;4965802;28;20488;-81
2022/11/20 02:03:13;;;;;;;1.80;0.50;;;27.80;44.30;;;;;;4942784;29;20406;-84
2022/11/20 02:06:05;;;;;;;1.13;0.28;;;27.60;44.60;;;;;;4955402;28;20936;-85
2022/11/20 02:08:34;;;;;;;0.82;0.30;;;26.90;44.10;;;;;;4952735;28;20414;-83
2022/11/20 02:11:01;;;;;;;1.70;0.32;;;26.70;44.40;;;;;;4960660;28;20391;-88
2022/11/20 02:13:44;;;;;;;1.10;0.40;;;26.70;44.50;;;;;;4970235;28;20470;-83
2022/11/20 02:16:19;;;;;;;3.25;0.47;;;27.00;44.60;;;;;;4963744;28;20436;-82
2022/11/20 02:18:47;;;;;;;1.70;0.40;;;27.30;44.10;;;;;;4962884;28;20505;-84
2022/11/20 02:21:38;;;;;;;4.38;0.50;;;27.30;44.50;;;;;;4962625;28;20396;-86
2022/11/20 02:24:12;;;;;;;1.63;0.35;;;26.50;45.20;;;;;;5019487;28;20967;-83
2022/11/20 02:26:49;;;;;;;2.80;0.50;;;26.30;46.30;;;;;;5053348;28;20387;-84
2022/11/20 02:29:19;;;;;;;0.73;0.30;;;26.20;47.30;;;;;;5052496;28;20396;-84
2022/11/20 02:31:47;;;;;;;0.95;0.30;;;26.30;47.00;;;;;;5053533;28;20787;-88
2022/11/20 02:34:14;;;;;;;0.60;0.30;;;26.20;46.60;;;;;;5050137;28;20408;-88
2022/11/20 02:36:42;;;;;;;1.33;0.30;;;26.50;47.10;;;;;;5070792;28;20854;-88
2022/11/20 02:39:12;;;;;;;0.55;0.20;;;26.50;46.30;;;;;;5064017;28;20394;-91
2022/11/20 02:42:09;;;;;;;0.82;0.25;;;26.60;45.90;;;;;;5057245;28;20382;-89
2022/11/20 02:44:36;;;;;;;1.73;0.30;;;26.50;47.20;;;;;;4975281;28;20430;-85
2022/11/20 02:47:26;;;;;;;;;;;;;;;;;;;;;
2022/11/20 02:49:53;;;;;;;0.40;0.30;;;27.30;45.90;;;;;;4982574;28;20401;-85
2022/11/20 02:52:20;;;;;;;0.73;0.20;;;27.10;45.70;;;;;;4991436;28;20462;-87
2022/11/20 02:54:47;;;;;;;0.60;0.30;;;27.10;44.30;;;;;;4978932;28;20842;-85
2022/11/20 02:57:14;;;;;;;2.20;0.38;;;26.50;45.10;;;;;;4976281;28;20435;-85
2022/11/20 02:59:41;;;;;;;2.08;0.35;;;26.80;45.10;;;;;;4990290;28;20820;-88
2022/11/20 03:02:08;;;;;;;1.75;0.32;;;26.90;46.20;;;;;;4963702;28;20404;-88
2022/11/20 03:04:35;;;;;;;2.57;0.40;;;27.40;44.30;;;;;;4976652;28;20798;-86
2022/11/20 03:07:02;;;;;;;1.20;0.50;;;27.50;44.00;;;;;;4977314;28;20889;-87
2022/11/20 03:09:29;;;;;;;0.47;0.30;;;27.20;44.20;;;;;;4988034;28;20384;-84
2022/11/20 03:11:56;;;;;;;0.73;0.30;;;27.40;45.20;;;;;;4990799;28;20404;-89
2022/11/20 03:14:23;;;;;;;2.00;0.50;;;27.00;45.00;;;;;;4978431;28;20500;-87
2022/11/20 03:16:50;;;;;;;0.98;0.30;;;26.30;46.40;;;;;;4971752;28;20926;-85
2022/11/20 03:19:17;;;;;;;1.13;0.30;;;26.40;47.00;;;;;;4991410;28;21042;-86
2022/11/20 03:21:44;;;;;;;0.93;0.30;;;26.80;46.50;;;;;;5031607;28;20393;-87
2022/11/20 03:24:11;;;;;;;3.10;0.40;;;27.10;45.00;;;;;;5069027;28;20374;-86
2022/11/20 03:26:40;;;;;;;0.67;0.30;;;27.20;44.90;;;;;;5073652;28;20380;-83
2022/11/20 03:29:07;;;;;;;0.68;0.20;;;27.40;45.20;;;;;;5073317;28;20397;-84
2022/11/20 03:31:36;;;;;;;0.20;0.20;;;26.90;44.10;;;;;;5074467;28;20381;-84
2022/11/20 03:34:04;;;;;;;0.70;0.20;;;27.00;44.20;;;;;;5079538;28;20444;-82
2022/11/20 03:36:32;;;;;;;4.20;0.40;;;27.40;43.40;;;;;;5063044;28;20454;-84
2022/11/20 03:38:59;;;;;;;1.70;0.35;;;27.10;42.30;;;;;;5078941;28;20406;-83
2022/11/20 03:41:31;;;;;;;0.85;0.30;;;27.00;42.20;;;;;;5076483;28;20410;-83
2022/11/20 03:44:01;;;;;;;0.52;0.30;;;27.00;42.70;;;;;;5068868;28;20424;-84
2022/11/20 03:46:29;;;;;;;1.13;0.30;;;27.50;42.50;;;;;;5073825;28;20367;-88
2022/11/20 03:48:56;;;;;;;2.45;0.30;;;27.60;42.80;;;;;;5071944;28;20397;-84
2022/11/20 03:51:26;;;;;;;0.80;0.30;;;27.30;44.20;;;;;;5073496;28;20402;-85
2022/11/20 03:53:56;;;;;;;0.63;0.25;;;27.60;43.90;;;;;;5073476;28;20397;-88
2022/11/20 03:56:31;;;;;;;1.65;0.45;;;28.10;43.40;;;;;;5049661;28;20741;-82
2022/11/20 03:58:59;;;;;;;1.75;0.40;;;28.00;43.70;;;;;;5073047;28;20386;-83
2022/11/20 04:01:35;;;;;;;2.42;0.40;;;28.10;43.10;;;;;;5067286;28;20419;-82
2022/11/20 04:04:02;;;;;;;4.35;0.40;;;27.40;44.10;;;;;;5069865;28;20438;-82
2022/11/20 04:06:34;;;;;;;1.50;0.20;;;27.50;44.90;;;;;;5065670;28;20921;-84
2022/11/20 04:09:01;;;;;;;0.80;0.40;;;27.20;44.00;;;;;;5071862;28;20381;-84
2022/11/20 04:11:30;;;;;;;1.13;0.30;;;27.60;44.90;;;;;;5062346;28;20441;-82
2022/11/20 04:14:02;;;;;;;1.50;0.30;;;27.70;45.00;;;;;;5071937;28;20398;-84
2022/11/20 04:16:34;;;;;;;1.75;0.22;;;27.50;43.20;;;;;;5061852;28;20451;-81
2022/11/20 04:19:04;;;;;;;0.57;0.30;;;27.30;42.30;;;;;;5064498;28;20438;-84
2022/11/20 04:21:32;;;;;;;1.23;0.33;;;27.60;41.50;;;;;;5057258;28;20844;-83
2022/11/20 04:23:59;;;;;;;2.05;0.40;;;27.40;40.90;;;;;;5066428;28;20386;-84
2022/11/20 04:26:28;;;;;;;1.55;0.43;;;27.40;41.00;;;;;;5072454;28;20397;-84
2022/11/20 04:28:55;;;;;;;0.75;0.38;;;27.60;40.90;;;;;;5071860;28;20858;-84
2022/11/20 04:31:28;;;;;;;3.38;0.60;;;27.50;41.30;;;;;;5059305;28;20837;-85
2022/11/20 04:33:55;;;;;;;1.60;0.30;;;27.40;40.80;;;;;;5049417;28;20400;-84
2022/11/20 04:36:25;;;;;;;1.58;0.40;;;27.20;41.60;;;;;;5070257;28;20373;-84
2022/11/20 04:38:57;;;;;;;2.22;0.28;;;27.60;42.00;;;;;;5067689;28;20386;-83
2022/11/20 04:41:29;;;;;;;1.70;0.35;;;27.10;41.90;;;;;;5041142;28;20382;-84
2022/11/20 04:44:02;;;;;;;1.40;0.30;;;27.00;42.40;;;;;;5068168;28;20781;-84
2022/11/20 04:46:33;;;;;;;0.93;0.25;;;27.40;41.10;;;;;;5066348;28;20375;-84
2022/11/20 04:49:01;;;;;;;1.50;0.30;;;27.70;40.50;;;;;;5062255;28;20387;-83
2022/11/20 04:51:28;;;;;;;1.20;0.30;;;27.70;40.90;;;;;;5071831;28;20413;-81
2022/11/20 04:53:55;;;;;;;2.60;0.30;;;27.70;40.40;;;;;;5067894;28;20421;-82
2022/11/20 04:56:22;;;;;;;0.73;0.23;;;27.70;40.50;;;;;;5053558;28;20397;-82
2022/11/20 04:58:49;;;;;;;0.50;0.20;;;27.90;40.60;;;;;;5071757;28;20937;-83
2022/11/20 05:01:22;;;;;;;1.45;0.30;;;27.60;41.30;;;;;;5069983;28;20366;-82
2022/11/20 05:03:49;;;;;;;0.70;0.30;;;27.40;41.00;;;;;;5054416;28;20385;-83
2022/11/20 05:06:19;;;;;;;0.60;0.30;;;27.10;39.40;;;;;;5065418;28;20462;-82
2022/11/20 05:08:46;;;;;;;0.70;0.30;;;27.20;40.40;;;;;;5058445;28;20381;-87
2022/11/20 05:11:16;;;;;;;0.55;0.30;;;27.40;40.40;;;;;;5059955;28;20388;-83
2022/11/20 05:13:43;;;;;;;2.90;0.37;;;27.40;39.00;;;;;;5071405;28;20448;-90
2022/11/20 05:16:12;;;;;;;0.77;0.30;;;27.50;38.20;;;;;;5076789;28;20447;-89
2022/11/20 05:18:40;;;;;;;0.60;0.20;;;27.40;38.40;;;;;;5071979;28;20401;-88
2022/11/20 05:21:08;;;;;;;2.63;1.25;;;27.00;38.10;;;;;;5053478;28;20456;-86
2022/11/20 05:23:36;;;;;;;1.70;0.40;;;27.00;38.50;;;;;;5071148;28;20374;-87
2022/11/20 05:26:03;;;;;;;0.88;0.30;;;27.00;37.30;;;;;;5071860;28;20378;-88
2022/11/20 05:28:31;;;;;;;0.98;0.50;;;26.90;37.00;;;;;;5072197;28;20387;-89
2022/11/20 05:31:09;;;;;;;1.60;0.30;;;27.10;37.30;;;;;;5077254;28;20409;-86
2022/11/20 05:33:39;;;;;;;0.98;0.30;;;27.30;36.50;;;;;;5062001;28;20421;-89
2022/11/20 05:36:07;;;;;;;1.00;0.30;;;27.50;36.80;;;;;;5082695;28;20477;-88
2022/11/20 05:38:34;;;;;;;2.70;0.45;;;27.70;35.40;;;;;;5056655;28;20399;-88
2022/11/20 05:41:08;;;;;;;1.00;0.38;;;27.10;36.60;;;;;;5072408;28;20723;-89
2022/11/20 05:43:37;;;;;;;0.77;0.30;;;27.00;37.10;;;;;;5072193;28;20539;-90
2022/11/20 05:46:05;;;;;;;1.30;0.35;;;26.80;37.20;;;;;;5072110;28;20513;-89
2022/11/20 05:48:33;;;;;;;1.20;0.20;;;27.20;37.40;;;;;;5072332;28;20378;-89
2022/11/20 05:51:02;;;;;;;1.38;0.35;;;27.30;37.70;;;;;;5071711;28;20373;-87
2022/11/20 05:53:29;;;;;;;1.80;0.35;;;27.10;37.50;;;;;;5072129;28;20390;-87
2022/11/20 05:56:04;;;;;;;2.22;0.30;;;26.90;37.20;;;;;;5053594;28;20413;-86
2022/11/20 05:58:31;;;;;;;0.50;0.30;;;27.00;38.40;;;;;;5071553;28;20378;-90
2022/11/20 06:01:10;;;;;;;2.63;0.50;;;27.10;38.20;;;;;;5071844;28;20397;-89
2022/11/20 06:03:38;;;;;;;1.63;0.50;;;27.10;37.90;;;;;;5053932;28;20382;-88
2022/11/20 06:06:06;;;;;;;3.10;0.47;;;27.30;37.70;;;;;;5071773;28;20463;-88
2022/11/20 06:08:33;;;;;;;2.35;0.50;;;27.20;37.10;;;;;;5071117;28;20917;-87
2022/11/20 06:11:06;;;;;;;1.73;0.65;;;27.30;37.90;;;;;;5055032;28;20395;-85
2022/11/20 06:13:33;;;;;;;0.93;0.40;;;27.20;37.20;;;;;;5066326;28;20420;-83
2022/11/20 06:16:00;;;;;;;1.83;0.40;;;26.70;38.30;;;;;;5058909;28;20383;-81
2022/11/20 06:18:28;;;;;;;2.20;0.40;;;26.80;38.40;;;;;;5062490;28;20454;-83
2022/11/20 06:21:13;;;;;;;2.53;0.43;;;26.70;38.60;;;;;;5059064;28;20385;-84
2022/11/20 06:23:40;;;;;;;1.73;0.35;;;26.60;38.20;;;;;;5052657;28;20545;-83
2022/11/20 06:26:09;;;;;;;2.33;0.40;;;26.80;38.70;;;;;;5067965;28;20878;-83
2022/11/20 06:28:37;;;;;;;1.60;0.30;;;26.40;37.90;;;;;;5065812;28;20391;-82
2022/11/20 06:31:05;;;;;;;2.90;0.60;;;26.60;38.10;;;;;;5057846;28;20391;-83
2022/11/20 06:34:00;;;;;;;1.85;0.40;;;26.50;38.10;;;;;;5058876;28;20410;-82
2022/11/20 06:36:50;;;;;;;1.10;0.30;;;26.20;38.20;;;;;;5050725;28;20396;-81
2022/11/20 06:39:17;;;;;;;2.13;0.30;;;26.00;39.30;;;;;;5032179;28;20745;-82
2022/11/20 06:41:44;;;;;;;0.55;0.35;;;26.10;39.60;;;;;;5041745;28;20379;-83
2022/11/20 06:44:11;;;;;;;1.30;0.40;;;26.20;39.20;;;;;;5066624;28;20389;-82
2022/11/20 06:46:38;;;;;;;1.30;0.30;;;26.00;39.00;;;;;;5058484;28;20377;-84
2022/11/20 06:49:05;;;;;;;1.30;0.50;;;26.00;39.10;;;;;;5061161;28;20390;-81
2022/11/20 06:51:32;;;;;;;1.10;0.40;;;25.70;39.00;;;;;;5061922;28;20467;-86
2022/11/20 06:54:00;;;;;;;1.70;0.30;;;25.50;39.50;;;;;;5059271;28;20414;-82
2022/11/20 06:56:28;;;;;;;1.73;0.47;;;25.70;39.60;;;;;;5051090;28;20390;-81
2022/11/20 06:58:55;;;;;;;2.80;0.60;;;25.80;39.30;;;;;;5051893;28;20426;-84
2022/11/20 07:01:22;;;;;;;1.42;0.30;;;25.80;39.10;;;;;;5056155;28;20434;-84
2022/11/20 07:03:50;;;;;;;1.70;0.40;;;25.80;39.10;;;;;;5059878;28;20385;-83
2022/11/20 07:06:17;;;;;;;2.15;0.35;;;25.80;39.60;;;;;;5062987;28;20396;-83
2022/11/20 07:08:44;;;;;;;2.22;0.32;;;25.90;39.60;;;;;;5060415;28;20421;-82
2022/11/20 07:11:14;;;;;;;1.50;0.40;;;25.50;40.00;;;;;;5058759;28;20404;-83
2022/11/20 07:13:41;;;;;;;0.77;0.30;;;25.30;40.70;;;;;;5050796;28;20437;-81
2022/11/20 07:16:09;;;;;;;1.40;0.50;;;25.20;40.60;;;;;;5058877;28;20378;-81
2022/11/20 07:18:36;;;;;;;0.85;0.40;;;25.40;41.00;;;;;;5069530;28;20382;-84
2022/11/20 07:21:05;;;;;;;2.28;0.40;;;25.10;40.50;;;;;;5054579;28;20389;-83
2022/11/20 07:23:32;;;;;;;2.70;0.50;;;25.10;41.10;;;;;;5059711;28;20387;-83
2022/11/20 07:26:03;;;;;;;1.15;0.45;;;25.30;40.90;;;;;;5061447;28;20391;-83
2022/11/20 07:28:30;;;;;;;1.58;0.43;;;25.40;41.10;;;;;;5052752;28;20480;-83
2022/11/20 07:30:57;;;;;;;0.90;0.40;;;25.40;41.20;;;;;;5064973;28;20385;-84
2022/11/20 07:33:24;;;;;;;2.20;0.50;;;25.30;41.30;;;;;;5053530;28;20419;-82
2022/11/20 07:35:51;;;;;;;2.22;0.50;;;25.30;41.20;;;;;;5049416;28;20410;-85
2022/11/20 07:38:18;;;;;;;3.55;0.40;;;25.40;41.40;;;;;;5063006;28;20403;-84
2022/11/20 07:40:45;;;;;;;1.27;0.55;;;25.30;41.00;;;;;;5058839;28;20395;-84
2022/11/20 07:43:12;;;;;;;1.55;0.40;;;24.90;41.00;;;;;;5071596;28;20371;-83
2022/11/20 07:45:39;;;;;;;1.00;0.40;;;24.70;41.90;;;;;;5069013;28;20380;-82
2022/11/20 07:48:06;;;;;;;0.70;0.40;;;24.30;41.50;;;;;;5073053;28;20375;-85
2022/11/20 07:50:33;;;;;;;1.20;0.40;;;24.30;41.30;;;;;;5072909;28;20455;-86
2022/11/20 07:53:07;;;;;;;1.48;0.50;;;24.10;41.60;;;;;;5053529;28;20405;-85
2022/11/20 07:55:34;;;;;;;0.60;0.40;;;24.00;41.90;;;;;;5052892;28;20394;-87
2022/11/20 07:58:01;;;;;;;1.80;0.40;;;23.90;41.90;;;;;;5058638;28;20477;-87
2022/11/20 08:00:28;;;;;;;1.23;0.40;;;23.90;42.20;;;;;;5073305;28;20394;-87
2022/11/20 08:02:55;;;;;;;0.98;0.40;;;23.70;42.40;;;;;;5043191;28;20407;-87
2022/11/20 08:05:22;;;;;;;2.67;0.40;;;23.40;42.40;;;;;;5054831;28;20947;-89
2022/11/20 08:07:49;;;;;;;1.70;0.40;;;23.10;42.80;;;;;;5069622;28;20914;-86
2022/11/20 08:10:17;;;;;;;1.17;0.43;;;23.00;43.20;;;;;;5055988;28;20389;-85
2022/11/20 08:15:40;;;;;;;0.75;0.40;;;22.80;43.10;;;;;;5071283;28;20373;-85
2022/11/20 08:18:12;;;;;;;1.33;0.40;;;22.70;43.30;;;;;;5065482;28;20378;-86
2022/11/20 08:20:40;;;;;;;1.92;0.50;;;22.60;43.10;;;;;;5062665;28;20404;-85
2022/11/20 08:23:08;;;;;;;1.57;0.40;;;22.50;43.40;;;;;;5073712;28;20390;-85
2022/11/20 08:25:37;;;;;;;1.33;0.55;;;22.50;43.40;;;;;;5073428;28;20378;-88
2022/11/20 08:28:07;;;;;;;1.60;0.50;;;22.40;43.80;;;;;;5073294;28;20447;-89
2022/11/20 08:30:35;;;;;;;2.28;0.65;;;22.30;43.00;;;;;;5061403;28;20425;-88
2022/11/20 08:33:11;;;;;;;2.38;0.57;;;22.20;43.90;;;;;;5071712;28;20394;-88
2022/11/20 08:35:38;;;;;;;1.88;0.68;;;22.10;43.40;;;;;;5055555;28;20901;-87
2022/11/20 08:38:06;;;;;;;2.25;1.08;;;22.10;43.50;;;;;;5069173;28;20771;-88
2022/11/20 08:40:34;;;;;;;2.78;0.80;;;21.90;43.20;;;;;;5062997;28;20461;-79
2022/11/20 08:43:01;;;;;;;1.42;0.60;;;21.90;43.80;;;;;;5057666;28;20501;-77
2022/11/20 08:45:28;;;;;;;2.40;0.60;;;21.80;44.10;;;;;;5056997;28;20395;-77
2022/11/20 08:48:01;;;;;;;2.10;0.50;;;21.70;44.30;;;;;;5067078;28;20888;-82
2022/11/20 08:50:28;;;;;;;2.03;0.60;;;21.60;44.70;;;;;;5065473;28;20511;-80
2022/11/20 08:52:55;;;;;;;1.27;0.50;;;21.60;44.50;;;;;;5069755;28;20415;-82
2022/11/20 08:55:22;;;;;;;1.70;0.53;;;21.50;45.10;;;;;;5075417;28;20421;-77
2022/11/20 08:57:49;;;;;;;2.30;0.60;;;21.40;45.10;;;;;;5066228;28;20449;-81
2022/11/20 09:00:16;;;;;;;2.63;0.70;;;21.40;45.30;;;;;;5053982;28;20417;-78
2022/11/20 09:02:43;;;;;;;1.98;0.65;;;21.30;45.10;;;;;;5055768;28;20430;-78
2022/11/20 09:05:11;;;;;;;1.50;0.45;;;21.30;45.20;;;;;;5070066;28;20386;-82
2022/11/20 09:07:38;;;;;;;1.38;0.50;;;21.30;45.00;;;;;;5072126;28;20386;-79
2022/11/20 09:10:05;;;;;;;1.23;0.60;;;21.20;45.40;;;;;;5063085;28;20431;-78
2022/11/20 09:12:32;;;;;;;1.38;0.68;;;21.20;45.50;;;;;;5073612;28;20453;-88
2022/11/20 09:14:59;;;;;;;2.92;0.70;;;21.20;44.70;;;;;;5056250;28;20404;-81
2022/11/20 09:17:26;;;;;;;1.48;0.60;;;21.20;44.50;;;;;;5057420;28;20427;-79
2022/11/20 09:19:53;;;;;;;3.13;0.60;;;21.20;44.80;;;;;;5072159;28;20478;-81
2022/11/20 09:22:20;;;;;;;2.13;0.60;;;21.10;45.20;;;;;;5072046;28;20377;-78
2022/11/20 09:24:47;;;;;;;1.90;0.60;;;21.00;45.20;;;;;;5071847;28;20908;-87
2022/11/20 09:27:14;;;;;;;2.92;0.70;;;20.90;45.70;;;;;;5064394;28;20795;-79
2022/11/20 09:29:41;;;;;;;1.80;0.70;;;20.90;45.90;;;;;;5070169;28;20382;-81
2022/11/20 09:32:08;;;;;;;1.55;0.70;;;20.90;45.60;;;;;;5065007;28;20469;-87
2022/11/20 09:34:35;;;;;;;1.73;0.80;;;20.90;45.90;;;;;;5058867;28;20405;-85
2022/11/20 09:37:02;;;;;;;1.50;0.60;;;20.90;46.00;;;;;;5071530;28;20370;-86
2022/11/20 09:39:29;;;;;;;2.65;1.90;;;20.80;46.30;;;;;;5067669;28;20439;-87
2022/11/20 09:42:16;;;;;;;3.03;1.70;;;20.70;46.60;;;;;;5040539;28;20791;-82
2022/11/20 09:45:15;;;;;;;6.28;4.10;;;20.70;46.70;;;;;;5070402;28;20390;-84
2022/11/20 09:48:00;;;;;;;3.30;1.08;;;20.60;47.10;;;;;;5067376;28;20467;-80
2022/11/20 09:50:40;;;;;;;3.60;2.17;;;20.50;47.20;;;;;;5059084;28;20862;-85
2022/11/20 09:53:37;;;;;;;1.07;0.80;;;20.40;48.10;;;;;;5053163;28;20425;-86
2022/11/20 09:56:04;;;;;;;2.10;0.90;;;20.30;48.00;;;;;;4983729;28;20418;-86
2022/11/20 09:58:42;;;;;;;1.25;0.80;;;20.30;48.00;;;;;;4978930;28;20420;-83
2022/11/20 10:01:21;;;;;;;1.90;0.60;;;20.20;48.90;;;;;;4985756;28;20465;-84
2022/11/20 10:04:05;;;;;;;2.28;0.60;;;20.10;48.70;;;;;;4961437;28;20381;-83
2022/11/20 10:06:37;;;;;;;3.63;1.10;;;20.10;48.70;;;;;;4989390;28;20879;-84
2022/11/20 10:09:17;;;;;;;3.13;0.80;;;20.00;49.30;;;;;;4987215;28;20400;-80
2022/11/20 10:11:59;;;;;;;1.57;0.63;;;19.90;49.70;;;;;;4987502;28;20738;-81
2022/11/20 10:14:32;;;;;;;2.05;0.68;;;19.90;49.50;;;;;;4989381;28;20420;-84
2022/11/20 10:17:25;;;;;;;2.37;1.17;;;19.90;49.80;;;;;;4992661;28;20381;-83
2022/11/20 10:20:19;;;;;;;1.75;1.02;;;19.80;50.20;;;;;;4979540;28;20485;-80
2022/11/20 10:22:46;;;;;;;2.63;1.60;;;19.60;50.40;;;;;;4990725;28;20385;-82
2022/11/20 10:25:20;;;;;;;1.70;1.20;;;19.60;51.00;;;;;;4976439;28;20391;-86
2022/11/20 10:28:15;;;;;;;3.28;1.67;;;19.50;51.80;;;;;;4993105;28;20376;-82
2022/11/20 10:30:48;;;;;;;1.98;0.70;;;19.50;51.90;;;;;;4996794;28;20376;-87
2022/11/20 10:33:23;;;;;;;2.35;0.70;;;19.30;51.70;;;;;;5042565;28;20432;-81
2022/11/20 10:36:17;;;;;;;2.20;0.93;;;19.20;52.40;;;;;;5068634;28;20378;-84
2022/11/20 10:39:00;;;;;;;2.17;0.80;;;19.00;53.60;;;;;;5057785;28;20382;-78
2022/11/20 10:41:32;;;;;;;4.57;3.13;;;19.00;53.10;;;;;;5056320;28;20949;-84
2022/11/20 10:44:05;;;;;;;3.85;2.00;;;18.90;52.90;;;;;;5052224;28;20868;-82
2022/11/20 10:46:45;;;;;;;5.35;2.13;;;18.90;53.40;;;;;;5057944;28;20396;-83
2022/11/20 10:49:18;;;;;;;5.13;2.63;;;18.90;53.70;;;;;;5050236;28;20774;-82
2022/11/20 10:52:25;;;;;;;3.47;2.20;;;18.90;53.70;;;;;;5069117;28;20409;-82
2022/11/20 10:55:27;;;;;;;2.33;1.20;;;19.00;53.50;;;;;;5064247;28;20423;-81
2022/11/20 10:58:15;;;;;;;3.70;1.80;;;19.00;54.00;;;;;;5060674;28;20397;-84
2022/11/20 11:00:42;;;;;;;1.53;1.37;;;19.00;54.20;;;;;;5059851;28;20460;-87
2022/11/20 11:03:31;;;;;;;2.60;1.10;;;19.00;54.20;;;;;;5050434;28;20387;-88
2022/11/20 11:06:22;;;;;;;1.25;0.70;;;19.00;54.50;;;;;;5061865;28;20466;-87
2022/11/20 11:08:52;;;;;;;2.20;0.70;;;19.10;53.70;;;;;;5049675;28;20395;-83
2022/11/20 11:11:26;;;;;;;2.47;0.63;;;19.10;53.70;;;;;;5063574;28;20382;-86
2022/11/20 11:13:53;;;;;;;2.33;0.90;;;19.20;54.00;;;;;;5064416;28;20410;-85
2022/11/20 11:16:26;;;;;;;2.73;0.70;;;19.20;54.20;;;;;;5059442;28;20387;-83
2022/11/20 11:19:11;;;;;;;3.15;0.90;;;19.10;54.20;;;;;;5057646;28;20447;-85
2022/11/20 11:21:43;;;;;;;1.73;0.85;;;19.30;54.10;;;;;;5074013;28;20370;-86
2022/11/20 11:24:22;;;;;;;1.38;0.80;;;19.20;53.90;;;;;;5072371;28;20416;-82
2022/11/20 11:26:58;;;;;;;2.28;0.70;;;19.20;54.20;;;;;;5074405;28;20378;-84
2022/11/20 11:29:29;;;;;;;4.63;0.95;;;19.10;54.30;;;;;;5070483;28;20419;-88
2022/11/20 11:32:08;;;;;;;2.83;0.65;;;19.10;54.20;;;;;;5054638;28;20384;-85
2022/11/20 11:34:35;;;;;;;2.95;0.80;;;19.10;54.60;;;;;;5053307;28;20483;-84
2022/11/20 11:37:04;;;;;;;2.17;0.82;;;19.00;55.00;;;;;;5060729;28;20374;-85
2022/11/20 11:39:33;;;;;;;1.85;0.65;;;18.90;55.00;;;;;;5070031;28;20469;-89
2022/11/20 11:42:02;;;;;;;1.77;0.80;;;18.90;55.40;;;;;;5055747;28;20386;-89
2022/11/20 11:47:32;;;;;;;1.25;0.70;;;18.60;55.80;;;;;;5067973;28;20373;-84
2022/11/20 11:50:16;;;;;;;2.70;0.80;;;18.50;55.80;;;;;;5073266;28;20412;-83
2022/11/20 11:53:13;;;;;;;3.22;0.80;;;18.40;56.00;;;;;;5069697;28;20533;-82
2022/11/20 11:56:09;;;;;;;2.90;0.80;;;18.30;56.70;;;;;;5062382;28;20962;-88
2022/11/20 11:58:47;;;;;;;2.15;0.60;;;18.20;56.30;;;;;;5043349;28;20393;-85
2022/11/20 12:01:40;;;;;;;1.42;0.70;;;18.20;56.60;;;;;;5038850;28;20415;-86
2022/11/20 12:04:40;;;;;;;1.98;0.70;;;18.10;57.00;;;;;;5006078;28;20397;-86
2022/11/20 12:07:18;;;;;;;3.60;1.00;;;18.10;57.00;;;;;;5011032;28;20470;-86
2022/11/20 12:09:52;;;;;;;2.20;0.90;;;18.10;57.20;;;;;;5010399;28;20389;-87
2022/11/20 12:12:39;;;;;;;2.15;0.80;;;18.10;57.10;;;;;;5010153;28;20588;-86
2022/11/20 12:15:13;;;;;;;3.17;0.93;;;18.10;56.40;;;;;;5010941;28;20422;-83
2022/11/20 12:17:40;;;;;;;1.98;0.70;;;18.50;55.00;;;;;;5007457;28;20399;-85
2022/11/20 12:20:14;;;;;;;1.73;0.60;;;18.50;54.80;;;;;;5010602;28;20411;-82
2022/11/20 12:22:51;;;;;;;1.40;0.70;;;18.50;55.00;;;;;;5000435;28;20755;-84
2022/11/20 12:25:28;;;;;;;1.67;0.60;;;18.50;55.10;;;;;;4999397;28;20395;-84
2022/11/20 12:28:07;;;;;;;2.00;0.65;;;18.40;55.40;;;;;;5008009;28;20398;-81
2022/11/20 12:30:54;;;;;;;1.27;0.70;;;18.40;55.40;;;;;;5009597;28;20391;-84
2022/11/20 12:33:42;;;;;;;2.40;0.70;;;18.40;55.20;;;;;;5010525;28;20970;-84
2022/11/20 12:36:44;;;;;;;2.07;0.80;;;18.30;55.70;;;;;;5006314;28;20427;-86
2022/11/20 12:39:35;;;;;;;1.95;0.90;;;18.40;55.90;;;;;;4895345;29;20390;-81
2022/11/20 12:45:27;;;;;;;2.22;0.80;;;18.30;55.70;;;;;;4934621;29;20864;-81
2022/11/20 12:48:12;;;;;;;1.70;0.80;;;18.30;55.00;;;;;;4949383;29;20501;-84
2022/11/20 12:50:59;;;;;;;1.57;0.77;;;18.30;54.80;;;;;;4943736;29;20763;-84
2022/11/20 12:53:34;;;;;;;1.40;0.60;;;18.30;55.40;;;;;;4938294;29;20422;-84
2022/11/20 12:56:01;;;;;;;2.70;0.80;;;18.40;54.00;;;;;;4951408;29;20431;-81
2022/11/20 12:58:33;;;;;;;2.20;0.70;;;18.50;53.60;;;;;;4951023;29;20475;-82
2022/11/20 13:01:09;;;;;;;1.20;0.70;;;18.40;53.80;;;;;;4942513;29;20400;-83
2022/11/20 13:03:51;;;;;;;3.15;0.70;;;18.40;53.80;;;;;;4951629;29;20392;-83
2022/11/20 13:06:19;;;;;;;2.75;0.80;;;18.40;53.80;;;;;;4951134;29;20389;-82
2022/11/20 13:08:58;;;;;;;1.88;0.77;;;18.50;53.80;;;;;;4939159;29;20404;-82
2022/11/20 13:11:28;;;;;;;2.22;0.88;;;18.50;53.90;;;;;;4951529;29;20434;-82
2022/11/20 13:14:35;;;;;;;2.22;0.70;;;18.40;53.20;;;;;;4951096;29;20439;-84
2022/11/20 13:17:17;;;;;;;2.67;0.80;;;18.40;53.50;;;;;;5044301;28;20380;-86
2022/11/20 13:19:54;;;;;;;1.85;0.60;;;18.30;53.70;;;;;;5041863;28;20375;-87
2022/11/20 13:22:30;;;;;;;1.50;0.70;;;18.10;53.90;;;;;;5042841;28;20481;-84
2022/11/20 13:24:57;;;;;;;2.43;0.60;;;18.10;53.90;;;;;;5039056;28;20376;-81